Darstellungsparameter: Aktuell verwendete Einstellungen:
Skalierung der Graphiken ... ?
xyx+y,   Skalierungsfaktor:      Skalierung: Modus: x, Faktor: 1
Darstellungszeitraum ... ?
Vom - - bis: - -   Zeitraum: 01.06.2010 - 01.06.2010
Min/Max/Avg-Anzeige ... ?
Zeige MMA aktuell
Zeige MMA Monat
Zeige MMA alles
Zeige --A aktuell
Zeige --A Monat
Zeige --A alles
Keine MMA-Anzeige
MMA:
Minimum Maximum Average (ber die Originaldaten)
MMA-Basis: 14.04.2020 - 16.05.2020
Quicknavigation für Darstellung... ?
Tage:      1T, 2T, 3T, 5T -1T -2T -3T -5T +1T +2T +3T +5T
Wochen: 1W, 2W, 3W -1W -2W -3W +1W +2W +3W
Monate: 1M, 3M, 6M -1M -3M -6M +1M +3M +6M
Jahre:    1J, 3J, 5J, 10J -1J -3J -5J -10J +1J +3J +5J +10J
Nutze für die Darstellung ... ?
Originaldaten oder Mittelwerte auf ...
Stundenbasis Tagesbasis Wochenbasis
Monatsbasis Jahresbasis      Datenbasis: Original-Daten
Darstellen als:
Statistik (Auto) Statistik J:M      Darstellung:
Zur Graphik,    zurück zur Übersicht aller Sensoren.
 
Tabellarische Datenbersicht: ?
 
Sensor: Nr:Datum:Temp:Abs-Feuchte:Windchill:Wind:
Aussen-T/F 1 01-06-2010 00:11:02 11.9 C 9.43 g/m*3 11.9 C 0 km/h
2 01-06-2010 00:23:02 11.8 C 9.47 g/m*3 11.8 C 0 km/h
3 01-06-2010 00:35:02 11.5 C 9.3 g/m*3 11.5 C 0 km/h
4 01-06-2010 00:47:02 11.7 C 9.41 g/m*3 11.7 C 0 km/h
5 01-06-2010 00:59:02 11.6 C 9.46 g/m*3 11.6 C 0 km/h
6 01-06-2010 01:11:02 11.5 C 9.5 g/m*3 11.5 C 0 km/h
7 01-06-2010 01:23:02 11.6 C 9.56 g/m*3 11.6 C 0 km/h
8 01-06-2010 01:35:02 11.7 C 9.62 g/m*3 11.7 C 0 km/h
9 01-06-2010 01:47:02 11.2 C 9.33 g/m*3 11.2 C 0 km/h
10 01-06-2010 01:59:02 11.2 C 9.33 g/m*3 11.2 C 0 km/h
11 01-06-2010 02:11:02 11 C 9.21 g/m*3 11 C 0 km/h
12 01-06-2010 02:23:02 10.9 C 9.25 g/m*3 10.9 C 0 km/h
13 01-06-2010 02:35:02 10.8 C 9.19 g/m*3 10.8 C 0 km/h
14 01-06-2010 02:47:02 10.8 C 9.19 g/m*3 10.8 C 0 km/h
15 01-06-2010 02:59:02 11.1 C 9.37 g/m*3 11.1 C 0 km/h
16 01-06-2010 03:11:02 11.3 C 9.49 g/m*3 11.3 C 0 km/h
17 01-06-2010 03:23:02 11.4 C 9.65 g/m*3 11.4 C 0 km/h
18 01-06-2010 03:35:02 11.4 C 9.65 g/m*3 11.4 C 0 km/h
19 01-06-2010 03:47:02 11.4 C 9.65 g/m*3 11.4 C 0 km/h
20 01-06-2010 03:59:03 11.4 C 9.65 g/m*3 11.4 C 0 km/h
21 01-06-2010 04:11:03 11.8 C 9.79 g/m*3 11.8 C 0 km/h
22 01-06-2010 04:23:03 11.2 C 9.43 g/m*3 11.2 C 0 km/h
23 01-06-2010 04:35:03 11 C 9.31 g/m*3 11 C 0 km/h
24 01-06-2010 04:47:03 10.5 C 9.02 g/m*3 10.5 C 0 km/h
25 01-06-2010 04:59:03 10.8 C 9.19 g/m*3 10.8 C 0 km/h
Sensor: Nr:Datum:Temp:Abs-Feuchte:Windchill:Wind:
Aussen-T/F 26 01-06-2010 05:11:03 11 C 9.31 g/m*3 11 C 0 km/h
27 01-06-2010 05:23:03 11.2 C 9.53 g/m*3 11.2 C 0 km/h
28 01-06-2010 05:35:03 11.2 C 9.43 g/m*3 11.2 C 0 km/h
29 01-06-2010 05:47:03 11.3 C 9.49 g/m*3 11.3 C 0 km/h
30 01-06-2010 05:59:03 11.2 C 9.43 g/m*3 11.2 C 0 km/h
31 01-06-2010 06:11:03 11.3 C 9.49 g/m*3 11.3 C 0 km/h
32 01-06-2010 06:23:03 11.3 C 9.38 g/m*3 11.3 C 0 km/h
33 01-06-2010 06:35:03 11.2 C 9.33 g/m*3 11.2 C 0 km/h
34 01-06-2010 06:47:03 11.1 C 9.17 g/m*3 11.1 C 0 km/h
35 01-06-2010 06:59:03 11.2 C 9.12 g/m*3 11.2 C 0 km/h
36 01-06-2010 07:11:02 11.4 C 9.24 g/m*3 11.4 C 0 km/h
37 01-06-2010 07:23:01 11.7 C 9.31 g/m*3 11.7 C 0 km/h
38 01-06-2010 07:35:02 12 C 9.38 g/m*3 12 C 0 km/h
39 01-06-2010 07:47:02 12.4 C 9.4 g/m*3 12.4 C 0 km/h
40 01-06-2010 07:59:02 12.7 C 9.35 g/m*3 12.7 C 0 km/h
41 01-06-2010 08:11:02 12.9 C 9.35 g/m*3 12.9 C 0 km/h
42 01-06-2010 08:23:01 13.6 C 9.53 g/m*3 13.6 C 0 km/h
43 01-06-2010 08:35:02 13.9 C 9.35 g/m*3 13.9 C 0 km/h
44 01-06-2010 08:47:01 14.2 C 9.16 g/m*3 14.2 C 0 km/h
45 01-06-2010 08:59:01 13.8 C 9.17 g/m*3 13.8 C 0 km/h
46 01-06-2010 09:11:02 14.3 C 9.09 g/m*3 14.3 C 0 km/h
47 01-06-2010 09:23:02 14.7 C 9.07 g/m*3 14.7 C 0 km/h
48 01-06-2010 09:35:02 15.2 C 9.22 g/m*3 15.2 C 0 km/h
49 01-06-2010 09:47:01 15 C 8.59 g/m*3 15 C 0 km/h
50 01-06-2010 09:59:01 15.8 C 8.62 g/m*3 15.8 C 0 km/h
Sensor: Nr:Datum:Temp:Abs-Feuchte:Windchill:Wind:
Aussen-T/F 51 01-06-2010 10:11:02 15.3 C 8.36 g/m*3 15.3 C 0 km/h
52 01-06-2010 10:23:02 14.5 C 8.58 g/m*3 14.5 C 0 km/h
53 01-06-2010 10:35:01 14.5 C 8.83 g/m*3 14.5 C 0 km/h
54 01-06-2010 10:47:02 15.7 C 8.83 g/m*3 15.7 C 0 km/h
55 01-06-2010 10:59:02 15.4 C 8.54 g/m*3 15.4 C 0 km/h
56 01-06-2010 11:11:01 16.1 C 8.64 g/m*3 16.1 C 0 km/h
57 01-06-2010 11:23:02 17.2 C 8.49 g/m*3 17.2 C 0 km/h
58 01-06-2010 11:35:01 16.7 C 7.96 g/m*3 16.7 C 0 km/h
59 01-06-2010 11:47:02 17.6 C 8.1 g/m*3 17.6 C 0 km/h
60 01-06-2010 11:59:02 17.8 C 7.59 g/m*3 17.8 C 0 km/h
61 01-06-2010 12:11:02 18.8 C 7.89 g/m*3 18.8 C 0 km/h
62 01-06-2010 12:23:02 18.9 C 7.45 g/m*3 18.9 C 0 km/h
63 01-06-2010 12:35:03 19.3 C 6.63 g/m*3 19.3 C 0 km/h
64 01-06-2010 12:47:02 20.6 C 7.34 g/m*3 20.6 C 0 km/h
65 01-06-2010 12:59:03 19.5 C 6.71 g/m*3 19.5 C 0 km/h
66 01-06-2010 13:11:01 19.7 C 6.79 g/m*3 19.7 C 0 km/h
67 01-06-2010 13:23:02 20.9 C 6.92 g/m*3 20.9 C 0 km/h
68 01-06-2010 13:35:02 21.6 C 6.83 g/m*3 21.6 C 0 km/h
69 01-06-2010 13:47:02 20.4 C 6.19 g/m*3 20.4 C 0 km/h
70 01-06-2010 13:59:02 20.3 C 6.68 g/m*3 20.3 C 0 km/h
71 01-06-2010 14:11:03 19.8 C 6.66 g/m*3 19.8 C 0 km/h
72 01-06-2010 14:23:02 20.5 C 7.12 g/m*3 20.5 C 0 km/h
73 01-06-2010 14:35:02 21 C 6.05 g/m*3 21 C 0 km/h
74 01-06-2010 14:47:01 22 C 6.02 g/m*3 22 C 0 km/h
75 01-06-2010 14:59:01 21.6 C 5.88 g/m*3 21.6 C 0 km/h
Sensor: Nr:Datum:Temp:Abs-Feuchte:Windchill:Wind:
Aussen-T/F 76 01-06-2010 15:11:02 20.8 C 5.61 g/m*3 20.8 C 0 km/h
77 01-06-2010 15:23:01 21.2 C 5.37 g/m*3 21.2 C 0 km/h
78 01-06-2010 15:35:01 22.2 C 5.1 g/m*3 22.2 C 0 km/h
79 01-06-2010 15:47:01 23.8 C 5.38 g/m*3 23.8 C 0 km/h
80 01-06-2010 15:59:01 22.7 C 5.25 g/m*3 22.7 C 0 km/h
81 01-06-2010 16:11:02 22.3 C 4.54 g/m*3 22.3 C 0 km/h
82 01-06-2010 16:23:01 22.7 C 5.05 g/m*3 22.7 C 0 km/h
83 01-06-2010 16:35:01 22.7 C 5.05 g/m*3 22.7 C 0 km/h
84 01-06-2010 16:47:01 22.7 C 5.05 g/m*3 22.7 C 0 km/h
85 01-06-2010 16:59:01 23.6 C 5.1 g/m*3 23.6 C 0 km/h
86 01-06-2010 17:11:02 23.3 C 5.23 g/m*3 23.3 C 0 km/h
87 01-06-2010 17:23:02 22.8 C 5.89 g/m*3 22.8 C 0 km/h
88 01-06-2010 17:35:01 22.7 C 5.25 g/m*3 22.7 C 0 km/h
89 01-06-2010 17:47:01 22.4 C 5.16 g/m*3 22.4 C 0 km/h
90 01-06-2010 17:59:01 21.3 C 4.85 g/m*3 21.3 C 0 km/h
91 01-06-2010 18:11:01 20.7 C 4.68 g/m*3 20.7 C 0 km/h
92 01-06-2010 18:23:02 20.4 C 4.95 g/m*3 20.4 C 0 km/h
93 01-06-2010 18:35:01 20.7 C 4.86 g/m*3 20.7 C 0 km/h
94 01-06-2010 18:47:03 20.6 C 5.37 g/m*3 20.6 C 0 km/h
95 01-06-2010 18:59:03 20.4 C 5.66 g/m*3 20.4 C 0 km/h
96 01-06-2010 19:11:02 20.1 C 5.74 g/m*3 20.1 C 0 km/h
97 01-06-2010 19:23:02 19.7 C 6.11 g/m*3 19.7 C 0 km/h
98 01-06-2010 19:35:02 19.5 C 6.38 g/m*3 19.5 C 0 km/h
99 01-06-2010 19:47:02 19.3 C 6.14 g/m*3 19.3 C 0 km/h
100 01-06-2010 19:59:02 19.1 C 6.07 g/m*3 19.1 C 0 km/h
Sensor: Nr:Datum:Temp:Abs-Feuchte:Windchill:Wind:
Aussen-T/F 101 01-06-2010 20:11:02 18.9 C 6.8 g/m*3 18.9 C 0 km/h
102 01-06-2010 20:23:02 18.7 C 7.04 g/m*3 18.7 C 0 km/h
103 01-06-2010 20:35:02 18.2 C 6.99 g/m*3 18.2 C 0 km/h
104 01-06-2010 20:47:02 17.8 C 7.29 g/m*3 17.8 C 0 km/h
105 01-06-2010 20:59:03 17.4 C 7.11 g/m*3 17.4 C 0 km/h
106 01-06-2010 21:11:01 16.8 C 7.15 g/m*3 16.8 C 0 km/h
107 01-06-2010 21:23:01 16.6 C 7.2 g/m*3 16.6 C 0 km/h
108 01-06-2010 21:35:02 16.1 C 7.13 g/m*3 16.1 C 0 km/h
109 01-06-2010 21:47:02 15.8 C 7 g/m*3 15.8 C 0 km/h
110 01-06-2010 21:59:02 15.5 C 7.01 g/m*3 15.5 C 0 km/h
111 01-06-2010 22:11:02 15.3 C 7.18 g/m*3 15.3 C 0 km/h
112 01-06-2010 22:23:02 15.1 C 7.22 g/m*3 15.1 C 0 km/h
113 01-06-2010 22:35:02 15 C 7.31 g/m*3 15 C 0 km/h
114 01-06-2010 22:47:02 14.9 C 7.52 g/m*3 14.9 C 0 km/h
115 01-06-2010 22:59:02 14.9 C 7.65 g/m*3 14.9 C 0 km/h
116 01-06-2010 23:11:02 14.8 C 7.73 g/m*3 14.8 C 0 km/h
117 01-06-2010 23:23:02 14.8 C 7.6 g/m*3 14.8 C 0 km/h
118 01-06-2010 23:35:02 14.8 C 7.73 g/m*3 14.8 C 0 km/h
119 01-06-2010 23:47:01 14.7 C 7.81 g/m*3 14.7 C 0 km/h
120 01-06-2010 23:59:01 14.6 C 7.88 g/m*3 14.6 C 0 km/h

Legende:
   Min
   Max


Maximal/Minimal-Werte vom 14.04.2020 - 16.05.2020

Sensor Min Max Avg
Temp
(Aussen-T/F)
-0.1 °C
15-04-2020  06:55:00
26.2 °C
17-04-2020  18:05:00
11.98 °C

Die Daten stammen von einer Davis Vantage Pro 2 Wetter-Station und werden unter Linux mit der Software wview2wettercgi und aufbereitet. Alle Angaben erfolgen ohne Gewähr für ihre Vollständigkeit oder Richtigkeit.
Kontakt: Rainer Krienke krienke@uni-koblenz.de . Meine Webseiten an der Uni Koblenz oder privat.
Version: $Revision: 0.78 $